CCU weather

Netaji Subhash Chandra Bose International Airport
Kolkata, West Bengal, India

Public forecast

Using degrees Celsius for public forecast. Weather courtesy of forecast.io.

Current aviation weather report (METAR) for Netaji Subhash Chandra Bose International Airport

Retrieved 2020/07/09 10:50 UTC (23 minutes ago):

VECC 091050Z 23011KT 1200 R19L/1200 TSRA SCT015 FEW030CB OVC090 30/29 Q0999 TEMPO TL1230 0800 TSRA

Aviation forecast (TAF) for Netaji Subhash Chandra Bose International Airport

Forecast is more than 6 hours old.

Retrieved 2020-07-09 00:48 UTC (10 hours ago):

TAF VECC 082300Z 0900/1006 19008KT 3500 -RA HZ SCT018 BKN100 TEMPO 0905/0909 2000 TSRA SCT015 FEW025CB OVC090 BECMG 0923/1001 2800 -RA HZ BECMG 1003/1005 3500 -RA HZ